Time;durP1;ratioP1;P1;durP2;ratioP2;P2;SDS_P1;SDS_P2;PMS_P1;PMS_P2;Temp;Humidity;BMP_temperature;BMP_pressure;BME280_temperature;BME280_humidity;BME280_pressure;Samples;Min_cycle;Max_cycle;Signal;HPM_P1;HPM_P2
2023/03/11 00:00:45;;;;;;;8.27;7.47;;;2.90;99.90;;;;;;4897925;29;20198;-67
2023/03/11 00:03:19;;;;;;;10.47;7.90;;;2.90;99.90;;;;;;4897878;29;20210;-67
2023/03/11 00:05:48;;;;;;;8.57;7.20;;;2.80;99.90;;;;;;4897966;29;20279;-67
2023/03/11 00:08:22;;;;;;;7.80;7.00;;;2.80;99.90;;;;;;4897788;29;20206;-67
2023/03/11 00:10:53;;;;;;;9.57;6.07;;;2.90;99.90;;;;;;4897581;29;20211;-67
2023/03/11 00:13:23;;;;;;;8.40;6.10;;;2.90;99.90;;;;;;4905153;29;20286;-68
2023/03/11 00:15:55;;;;;;;6.70;6.10;;;2.80;99.90;;;;;;4893312;29;20582;-67
2023/03/11 00:18:30;;;;;;;8.10;6.47;;;2.90;99.90;;;;;;4897412;29;20676;-70
2023/03/11 00:20:59;;;;;;;9.00;6.20;;;2.90;99.90;;;;;;4897393;29;20194;-70
2023/03/11 00:23:29;;;;;;;6.70;5.73;;;2.90;99.90;;;;;;4897557;29;20257;-68
2023/03/11 00:25:58;;;;;;;8.67;6.10;;;2.80;99.90;;;;;;4897673;29;20196;-68
2023/03/11 00:28:27;;;;;;;7.13;6.20;;;2.80;99.90;;;;;;4897325;29;20227;-68
2023/03/11 00:30:56;;;;;;;6.53;5.70;;;2.80;99.90;;;;;;4897328;29;20203;-68
2023/03/11 00:33:26;;;;;;;7.57;6.73;;;2.80;99.90;;;;;;4897162;29;20220;-67
2023/03/11 00:35:55;;;;;;;6.53;5.83;;;2.80;99.90;;;;;;4897186;29;20218;-69
2023/03/11 00:38:23;;;;;;;7.27;5.80;;;2.80;99.90;;;;;;4897211;29;20204;-68
2023/03/11 00:40:52;;;;;;;6.53;5.83;;;2.80;99.90;;;;;;4897209;29;20233;-68
2023/03/11 00:43:21;;;;;;;7.13;6.40;;;2.90;99.90;;;;;;4897173;29;20207;-68
2023/03/11 00:45:49;;;;;;;8.87;7.37;;;2.60;99.90;;;;;;4897213;29;20202;-69
2023/03/11 00:48:18;;;;;;;7.73;5.87;;;2.60;99.90;;;;;;4880323;29;20650;-69
2023/03/11 00:50:49;;;;;;;8.03;5.73;;;2.70;99.90;;;;;;4896798;29;20262;-67
2023/03/11 00:53:19;;;;;;;8.50;6.17;;;2.70;99.90;;;;;;4880305;29;20225;-69
2023/03/11 00:55:47;;;;;;;9.40;6.40;;;2.80;99.90;;;;;;4897027;29;20218;-69
2023/03/11 00:58:16;;;;;;;10.37;7.33;;;2.90;99.90;;;;;;4880049;29;20616;-68
2023/03/11 01:00:51;;;;;;;9.30;7.10;;;3.00;99.90;;;;;;4879938;29;20210;-67
2023/03/11 01:03:20;;;;;;;7.20;6.50;;;3.00;99.90;;;;;;4880204;29;20302;-67
2023/03/11 01:05:51;;;;;;;7.03;6.13;;;2.80;99.90;;;;;;4880241;29;20264;-67
2023/03/11 01:08:19;;;;;;;7.83;6.17;;;2.80;99.90;;;;;;4896945;29;20244;-68
2023/03/11 01:10:48;;;;;;;8.57;6.87;;;2.70;99.90;;;;;;4881366;29;20280;-66
2023/03/11 01:13:16;;;;;;;8.67;6.47;;;2.70;99.90;;;;;;4897249;29;20217;-70
2023/03/11 01:15:45;;;;;;;7.57;6.47;;;2.70;99.90;;;;;;4879851;29;20618;-68
2023/03/11 01:18:15;;;;;;;7.87;6.93;;;2.60;99.90;;;;;;4879430;29;20236;-70
2023/03/11 01:20:44;;;;;;;7.50;6.33;;;2.70;99.90;;;;;;4896594;29;20213;-68
2023/03/11 01:23:15;;;;;;;8.37;7.03;;;2.80;99.90;;;;;;4896593;29;20211;-68
2023/03/11 01:25:44;;;;;;;13.60;6.67;;;2.80;99.90;;;;;;4896645;29;20206;-67
2023/03/11 01:28:13;;;;;;;7.90;6.87;;;2.80;99.90;;;;;;4879761;29;20589;-69
2023/03/11 01:30:43;;;;;;;8.23;7.37;;;2.80;99.90;;;;;;4896567;29;20207;-67
2023/03/11 01:33:16;;;;;;;7.93;6.60;;;2.80;99.90;;;;;;4896499;29;20284;-70
2023/03/11 01:35:45;;;;;;;7.73;6.93;;;2.80;99.90;;;;;;4879690;29;20207;-68
2023/03/11 01:38:16;;;;;;;9.93;8.00;;;2.80;99.90;;;;;;4896519;29;20216;-69
2023/03/11 01:40:47;;;;;;;9.60;7.60;;;2.80;99.90;;;;;;4879289;29;20564;-69
2023/03/11 01:43:54;;;;;;;8.47;7.57;;;2.80;99.90;;;;;;4896448;29;20195;-67
2023/03/11 01:46:33;;;;;;;9.20;7.80;;;2.80;99.90;;;;;;4879409;29;20769;-68
2023/03/11 01:49:04;;;;;;;8.70;7.53;;;2.80;99.90;;;;;;4879179;29;20746;-68
2023/03/11 01:51:39;;;;;;;9.50;6.33;;;2.90;99.90;;;;;;4896345;29;20698;-68
2023/03/11 01:54:13;;;;;;;8.27;7.03;;;2.90;99.90;;;;;;4879688;29;20323;-71
2023/03/11 01:56:43;;;;;;;10.50;8.03;;;2.80;99.90;;;;;;4879438;29;20216;-67
2023/03/11 01:59:14;;;;;;;10.20;7.43;;;2.80;99.90;;;;;;4879487;29;20634;-70
2023/03/11 02:01:51;;;;;;;8.17;6.87;;;2.80;99.90;;;;;;4879395;29;20576;-71
2023/03/11 02:04:21;;;;;;;6.83;6.07;;;2.80;99.90;;;;;;4879603;29;20208;-67
2023/03/11 02:06:50;;;;;;;8.40;6.57;;;2.90;99.90;;;;;;4896377;29;20715;-67
2023/03/11 02:09:25;;;;;;;9.80;6.80;;;2.80;99.90;;;;;;4879567;29;20304;-67
2023/03/11 02:11:55;;;;;;;9.50;7.07;;;2.90;99.90;;;;;;4879144;29;20252;-68
2023/03/11 02:14:26;;;;;;;10.40;6.60;;;2.90;99.90;;;;;;4879280;29;20225;-67
2023/03/11 02:16:57;;;;;;;9.30;7.43;;;2.80;99.90;;;;;;4895503;29;20235;-67
2023/03/11 02:19:36;;;;;;;10.07;7.37;;;2.90;99.90;;;;;;4880045;29;20238;-67
2023/03/11 02:22:06;;;;;;;8.73;7.33;;;2.80;99.90;;;;;;4877171;29;20227;-67
2023/03/11 02:24:45;;;;;;;9.00;7.80;;;2.80;99.90;;;;;;4879356;29;20210;-67
2023/03/11 02:27:18;;;;;;;11.30;8.27;;;2.90;99.90;;;;;;4871241;29;20266;-67
2023/03/11 02:29:50;;;;;;;8.53;7.37;;;2.80;99.90;;;;;;4861185;29;20212;-69
2023/03/11 02:32:20;;;;;;;12.00;8.67;;;2.80;99.90;;;;;;4882010;29;20218;-67
2023/03/11 02:34:49;;;;;;;7.77;6.97;;;2.80;99.90;;;;;;4899361;29;20286;-69
2023/03/11 02:37:18;;;;;;;10.63;7.60;;;2.90;99.90;;;;;;4899571;29;20197;-67
2023/03/11 02:39:55;;;;;;;8.30;7.30;;;3.00;99.90;;;;;;4879591;29;20212;-67
2023/03/11 02:42:28;;;;;;;9.67;7.93;;;3.00;99.90;;;;;;4863669;29;20244;-68
2023/03/11 02:45:01;;;;;;;7.67;6.77;;;2.90;99.90;;;;;;4880468;29;20288;-67
2023/03/11 02:47:31;;;;;;;8.07;6.80;;;2.80;99.90;;;;;;4870238;29;20211;-68
2023/03/11 02:50:00;;;;;;;8.50;7.60;;;2.70;99.90;;;;;;4882246;29;20207;-68
2023/03/11 02:52:32;;;;;;;9.97;7.57;;;2.70;99.90;;;;;;4882298;29;20263;-68
2023/03/11 02:55:01;;;;;;;7.67;6.50;;;2.80;99.90;;;;;;4898874;29;20717;-67
2023/03/11 02:57:31;;;;;;;12.40;7.97;;;2.70;99.90;;;;;;4882160;29;20201;-67
2023/03/11 03:00:05;;;;;;;8.57;7.53;;;2.80;99.90;;;;;;4882253;29;20207;-68
2023/03/11 03:02:34;;;;;;;7.33;6.50;;;2.90;99.90;;;;;;4882012;29;20218;-67
2023/03/11 03:05:03;;;;;;;8.87;7.13;;;2.90;99.90;;;;;;4881917;29;20207;-67
2023/03/11 03:07:32;;;;;;;9.97;6.97;;;2.90;99.90;;;;;;4899045;29;20204;-70
2023/03/11 03:10:01;;;;;;;7.60;6.40;;;2.80;99.90;;;;;;4881822;29;20208;-68
2023/03/11 03:12:32;;;;;;;6.43;5.83;;;2.90;99.90;;;;;;4882006;29;20223;-70
2023/03/11 03:15:02;;;;;;;6.17;5.60;;;2.90;99.90;;;;;;4898596;29;20223;-68
2023/03/11 03:17:30;;;;;;;7.23;6.30;;;2.80;99.90;;;;;;4878393;29;20229;-68
2023/03/11 03:19:59;;;;;;;6.43;5.83;;;2.70;99.90;;;;;;4878698;29;20267;-67
2023/03/11 03:22:30;;;;;;;6.00;5.40;;;2.70;99.90;;;;;;4878606;29;20209;-68
2023/03/11 03:24:58;;;;;;;6.23;5.63;;;2.70;99.90;;;;;;4878621;29;20621;-67
2023/03/11 03:27:27;;;;;;;6.10;5.27;;;2.80;99.90;;;;;;4879939;29;20347;-69
2023/03/11 03:29:57;;;;;;;6.63;5.40;;;2.70;99.90;;;;;;4878302;29;20635;-68
2023/03/11 03:32:26;;;;;;;5.63;5.13;;;2.80;99.90;;;;;;4878714;29;20616;-68
2023/03/11 03:34:57;;;;;;;6.80;5.43;;;2.70;99.90;;;;;;4878188;29;20242;-69
2023/03/11 03:37:38;;;;;;;5.30;4.70;;;2.80;99.90;;;;;;4878361;29;20263;-69
2023/03/11 03:40:08;;;;;;;5.63;4.97;;;2.80;99.90;;;;;;4878442;29;20285;-66
2023/03/11 03:42:37;;;;;;;7.80;5.83;;;2.80;99.90;;;;;;4862230;29;20211;-68
2023/03/11 03:45:10;;;;;;;6.47;5.47;;;2.80;99.90;;;;;;4877775;29;20203;-67
2023/03/11 03:47:39;;;;;;;5.70;5.10;;;2.80;99.90;;;;;;4861781;29;20577;-67
2023/03/11 03:50:10;;;;;;;8.60;6.43;;;2.70;99.90;;;;;;4878201;29;20210;-68
2023/03/11 03:52:41;;;;;;;6.37;5.77;;;2.70;99.90;;;;;;4878045;29;20217;-66
2023/03/11 03:55:10;;;;;;;9.13;6.73;;;2.60;99.90;;;;;;4879230;29;20223;-68
2023/03/11 03:57:39;;;;;;;8.53;6.00;;;2.70;99.90;;;;;;4806405;29;20211;-65
2023/03/11 04:00:14;;;;;;;6.97;5.20;;;2.70;99.90;;;;;;4821768;29;20305;-69
2023/03/11 04:02:45;;;;;;;7.10;5.67;;;2.70;99.90;;;;;;4806232;29;20211;-67
2023/03/11 04:05:25;;;;;;;5.87;4.93;;;2.70;99.90;;;;;;4806396;29;20207;-66
2023/03/11 04:07:55;;;;;;;6.83;5.40;;;2.70;99.90;;;;;;4806414;29;20286;-67
2023/03/11 04:10:24;;;;;;;6.63;5.77;;;2.70;99.90;;;;;;4821718;29;20308;-67
2023/03/11 04:12:53;;;;;;;7.70;5.10;;;2.80;99.90;;;;;;4806591;29;20234;-67
2023/03/11 04:15:23;;;;;;;6.03;4.63;;;2.80;99.90;;;;;;4825032;29;20239;-68
2023/03/11 04:17:53;;;;;;;6.70;5.20;;;2.60;99.90;;;;;;4868269;29;20237;-67
2023/03/11 04:20:22;;;;;;;6.43;5.03;;;2.70;99.90;;;;;;4843776;29;20971;-66
2023/03/11 04:22:52;;;;;;;6.47;5.13;;;2.70;99.90;;;;;;4859021;29;20232;-66
2023/03/11 04:25:24;;;;;;;6.70;5.37;;;2.70;99.90;;;;;;4859044;29;20208;-68
2023/03/11 04:27:52;;;;;;;7.67;4.77;;;2.70;99.90;;;;;;4859036;29;20212;-66
2023/03/11 04:30:24;;;;;;;5.40;4.90;;;2.70;99.90;;;;;;4859115;29;20234;-66
2023/03/11 04:32:56;;;;;;;5.73;4.40;;;2.60;99.90;;;;;;4858631;29;20223;-67
2023/03/11 04:35:25;;;;;;;7.37;5.27;;;2.70;99.90;;;;;;4859185;29;20605;-67
2023/03/11 04:37:54;;;;;;;6.30;4.93;;;2.60;99.90;;;;;;4858724;29;20227;-67
2023/03/11 04:40:25;;;;;;;5.17;4.47;;;2.60;99.90;;;;;;4858769;29;20206;-68
2023/03/11 04:42:54;;;;;;;5.77;5.20;;;2.60;99.90;;;;;;4858604;29;20303;-67
2023/03/11 04:45:24;;;;;;;5.53;4.87;;;2.60;99.90;;;;;;4858689;29;20265;-67
2023/03/11 04:47:56;;;;;;;5.80;5.20;;;2.60;99.90;;;;;;4867706;29;20268;-70
2023/03/11 04:50:25;;;;;;;6.67;5.03;;;2.60;99.90;;;;;;4877158;29;20580;-67
2023/03/11 04:52:55;;;;;;;5.40;4.90;;;2.60;99.90;;;;;;4876523;29;20200;-68
2023/03/11 04:55:24;;;;;;;6.33;4.83;;;2.60;99.90;;;;;;4876649;29;20235;-68
2023/03/11 04:57:53;;;;;;;7.77;5.37;;;2.50;99.90;;;;;;4878262;29;20200;-67
2023/03/11 05:00:24;;;;;;;5.47;4.93;;;2.50;99.90;;;;;;4878275;29;20196;-66
2023/03/11 05:03:02;;;;;;;5.07;4.33;;;2.40;99.90;;;;;;4876532;29;20279;-69
2023/03/11 05:05:31;;;;;;;5.20;4.37;;;2.40;99.90;;;;;;4878292;29;20191;-66
2023/03/11 05:08:00;;;;;;;5.40;4.70;;;2.40;99.90;;;;;;4876765;29;20212;-67
2023/03/11 05:10:31;;;;;;;4.87;4.20;;;2.40;99.90;;;;;;4861357;29;20290;-66
2023/03/11 05:13:04;;;;;;;4.57;4.17;;;2.40;99.90;;;;;;4876818;29;20260;-67
2023/03/11 05:15:38;;;;;;;8.73;4.37;;;2.40;99.90;;;;;;4876674;29;20574;-67
2023/03/11 05:18:08;;;;;;;4.73;3.97;;;2.40;99.90;;;;;;4876257;29;20275;-66
2023/03/11 05:20:38;;;;;;;6.40;4.47;;;2.30;99.90;;;;;;4876457;29;20215;-66
2023/03/11 05:23:11;;;;;;;6.83;4.57;;;2.30;99.90;;;;;;4876512;29;20596;-66
2023/03/11 05:25:40;;;;;;;4.93;4.47;;;2.40;99.90;;;;;;4876798;29;20212;-66
2023/03/11 05:28:10;;;;;;;5.23;4.73;;;2.40;99.90;;;;;;4876605;29;20227;-65
2023/03/11 05:30:45;;;;;;;4.83;4.33;;;2.40;99.90;;;;;;4861036;29;20208;-68
2023/03/11 05:33:14;;;;;;;5.73;3.93;;;2.40;99.90;;;;;;4876672;29;20234;-67
2023/03/11 05:35:43;;;;;;;5.03;4.27;;;2.30;99.90;;;;;;4876445;29;20233;-66
2023/03/11 05:38:14;;;;;;;4.83;3.93;;;2.30;99.90;;;;;;4877734;29;20256;-66
2023/03/11 05:40:44;;;;;;;5.17;4.63;;;2.30;99.90;;;;;;4876357;29;20209;-65
2023/03/11 05:43:13;;;;;;;5.67;4.60;;;2.40;99.90;;;;;;4876461;29;20209;-69
2023/03/11 05:45:45;;;;;;;5.83;4.43;;;2.40;99.90;;;;;;4876257;29;21127;-68
2023/03/11 05:48:14;;;;;;;4.50;3.90;;;2.40;99.90;;;;;;4865104;29;20214;-68
2023/03/11 05:50:43;;;;;;;5.30;4.43;;;2.30;99.90;;;;;;4857744;29;20201;-66
2023/03/11 05:53:12;;;;;;;4.93;4.37;;;2.40;99.90;;;;;;4859118;29;20217;-66
2023/03/11 05:55:41;;;;;;;5.47;4.23;;;2.40;99.90;;;;;;4842600;29;20212;-68
2023/03/11 05:58:10;;;;;;;5.83;4.30;;;2.40;99.90;;;;;;4842425;29;20202;-66
2023/03/11 06:00:38;;;;;;;5.53;4.33;;;2.40;99.90;;;;;;4859169;29;20197;-67
2023/03/11 06:03:09;;;;;;;5.60;4.50;;;2.30;99.90;;;;;;4857494;29;20276;-67
2023/03/11 06:05:44;;;;;;;4.83;3.87;;;2.30;99.90;;;;;;4860083;29;20220;-70
2023/03/11 06:08:12;;;;;;;5.20;4.70;;;2.30;99.90;;;;;;4861293;29;20221;-69
2023/03/11 06:10:41;;;;;;;10.23;5.07;;;2.30;99.90;;;;;;4846090;29;20260;-70
2023/03/11 06:13:11;;;;;;;7.80;5.17;;;2.30;99.90;;;;;;4861487;29;20744;-70
2023/03/11 06:15:48;;;;;;;4.90;4.40;;;2.30;99.90;;;;;;4861121;29;20691;-69
2023/03/11 06:18:18;;;;;;;6.40;4.40;;;2.40;99.90;;;;;;4886834;29;20571;-69
2023/03/11 06:20:47;;;;;;;6.70;4.23;;;2.40;99.90;;;;;;4886082;29;20217;-69
2023/03/11 06:23:15;;;;;;;5.33;4.10;;;2.40;99.90;;;;;;4889517;29;20551;-68
2023/03/11 06:25:45;;;;;;;5.10;3.47;;;2.40;99.90;;;;;;4899733;29;20191;-68
2023/03/11 06:28:14;;;;;;;4.37;3.97;;;2.30;99.90;;;;;;4878983;29;21136;-69
2023/03/11 06:30:45;;;;;;;4.80;4.20;;;2.20;99.90;;;;;;4879444;29;20204;-66
2023/03/11 06:33:17;;;;;;;4.40;3.90;;;2.20;99.90;;;;;;4879553;29;20581;-67
2023/03/11 06:35:56;;;;;;;7.83;4.70;;;2.30;99.90;;;;;;4879526;29;20214;-68
2023/03/11 06:38:25;;;;;;;6.90;5.53;;;2.30;99.90;;;;;;4884823;29;20566;-67
2023/03/11 06:40:54;;;;;;;5.27;4.13;;;2.20;99.90;;;;;;4882446;29;20208;-67
2023/03/11 06:43:23;;;;;;;4.03;3.67;;;2.20;99.90;;;;;;4899521;29;20196;-68
2023/03/11 06:45:53;;;;;;;7.43;4.50;;;2.20;99.90;;;;;;4882566;29;20229;-68
2023/03/11 06:48:24;;;;;;;4.83;4.43;;;2.20;99.90;;;;;;4882067;29;20644;-69
2023/03/11 06:50:55;;;;;;;5.33;4.10;;;2.20;99.90;;;;;;4882260;29;20299;-67
2023/03/11 06:53:24;;;;;;;4.67;4.23;;;2.30;99.90;;;;;;4882220;29;20208;-68
2023/03/11 06:56:03;;;;;;;5.03;4.10;;;2.40;99.90;;;;;;4881340;29;20340;-70
2023/03/11 06:58:38;;;;;;;4.57;4.17;;;2.40;99.90;;;;;;4882165;29;20209;-69
2023/03/11 07:01:10;;;;;;;6.47;3.67;;;2.40;99.90;;;;;;4882091;29;20626;-65
2023/03/11 07:03:41;;;;;;;11.43;7.00;;;2.40;99.90;;;;;;4882023;29;20678;-69
2023/03/11 07:06:13;;;;;;;6.00;4.63;;;2.40;99.90;;;;;;4874996;29;20213;-70
2023/03/11 07:08:42;;;;;;;5.90;4.60;;;2.40;99.90;;;;;;4887263;29;20204;-75
2023/03/11 07:11:14;;;;;;;8.57;4.20;;;2.40;99.90;;;;;;4865804;29;20266;-68
2023/03/11 07:13:46;;;;;;;9.17;5.90;;;2.40;99.90;;;;;;4879727;29;20228;-68
2023/03/11 07:16:17;;;;;;;8.37;6.00;;;2.40;99.90;;;;;;4898292;29;20239;-67
2023/03/11 07:18:50;;;;;;;6.67;5.50;;;2.30;99.90;;;;;;4882060;29;20227;-68
2023/03/11 07:21:20;;;;;;;6.07;5.50;;;2.20;99.90;;;;;;4908529;29;20693;-67
2023/03/11 07:23:52;;;;;;;6.00;5.43;;;2.30;99.90;;;;;;4896770;29;20203;-67
2023/03/11 07:26:21;;;;;;;6.87;4.87;;;2.40;99.90;;;;;;4888514;29;20204;-69
2023/03/11 07:28:50;;;;;;;5.07;4.53;;;2.40;99.90;;;;;;4890386;29;20200;-68
2023/03/11 07:31:22;;;;;;;5.77;4.73;;;2.30;99.90;;;;;;4880568;29;20719;-69
2023/03/11 07:33:53;;;;;;;8.33;6.17;;;2.30;99.90;;;;;;4879933;29;20207;-68
2023/03/11 07:36:24;;;;;;;5.13;4.63;;;2.30;99.90;;;;;;4879840;29;20757;-67
2023/03/11 07:38:57;;;;;;;7.40;4.80;;;2.40;99.90;;;;;;4879832;29;20208;-74
2023/03/11 07:41:26;;;;;;;5.80;4.93;;;2.40;99.90;;;;;;4880136;29;20208;-71
2023/03/11 07:43:56;;;;;;;5.27;4.23;;;2.50;99.90;;;;;;4879970;29;20287;-70
2023/03/11 07:46:26;;;;;;;5.47;4.40;;;2.50;99.90;;;;;;4879821;29;20675;-72
2023/03/11 07:48:57;;;;;;;6.83;3.67;;;2.60;98.20;;;;;;4895155;29;20720;-71
2023/03/11 07:51:27;;;;;;;5.77;4.20;;;2.50;97.10;;;;;;4898371;29;20268;-72
2023/03/11 07:53:58;;;;;;;4.70;3.70;;;2.50;97.70;;;;;;4898577;29;20618;-76
2023/03/11 07:56:28;;;;;;;6.17;4.13;;;2.50;97.90;;;;;;4898373;29;20210;-66
2023/03/11 07:58:58;;;;;;;6.37;5.30;;;2.40;98.30;;;;;;4898295;29;20567;-67
2023/03/11 08:01:34;;;;;;;8.00;5.53;;;2.40;99.60;;;;;;4898289;29;20193;-67
2023/03/11 08:04:07;;;;;;;6.20;4.40;;;2.30;99.90;;;;;;4880917;29;20223;-73
2023/03/11 08:06:37;;;;;;;5.57;4.67;;;2.30;99.90;;;;;;4884442;29;20204;-68
2023/03/11 08:09:08;;;;;;;4.23;3.87;;;2.40;99.90;;;;;;4897915;29;20210;-71
2023/03/11 08:11:38;;;;;;;5.97;3.90;;;2.40;98.50;;;;;;4898052;29;20204;-69
2023/03/11 08:14:07;;;;;;;4.00;3.60;;;2.50;99.10;;;;;;4889140;29;20205;-73
2023/03/11 08:16:35;;;;;;;5.40;4.60;;;2.50;98.90;;;;;;4887443;29;20237;-70
2023/03/11 08:19:06;;;;;;;5.33;3.77;;;2.40;98.30;;;;;;4889455;29;20783;-71
2023/03/11 08:21:34;;;;;;;4.93;3.90;;;2.40;98.30;;;;;;4862875;29;20290;-68
2023/03/11 08:24:03;;;;;;;4.03;3.73;;;2.50;98.40;;;;;;4879074;29;20210;-67
2023/03/11 08:26:34;;;;;;;8.03;6.20;;;2.60;97.20;;;;;;4879192;29;20205;-68
2023/03/11 08:29:02;;;;;;;4.53;4.10;;;2.80;97.80;;;;;;4888675;29;20211;-69
2023/03/11 08:31:34;;;;;;;6.30;4.63;;;2.80;96.00;;;;;;4862401;29;20397;-67
2023/03/11 08:34:06;;;;;;;7.87;6.73;;;2.80;94.60;;;;;;4878729;29;20202;-71
2023/03/11 08:36:35;;;;;;;5.50;3.87;;;2.80;93.80;;;;;;4879078;29;20251;-75
2023/03/11 08:39:04;;;;;;;3.97;3.50;;;2.60;93.90;;;;;;4878962;29;20593;-73
2023/03/11 08:41:33;;;;;;;5.33;3.23;;;2.70;94.40;;;;;;4863666;29;20218;-72
2023/03/11 08:44:02;;;;;;;9.03;6.03;;;2.60;95.40;;;;;;4862313;29;20283;-67
2023/03/11 08:46:33;;;;;;;11.70;6.97;;;2.60;96.30;;;;;;4878587;29;20285;-73
2023/03/11 08:49:03;;;;;;;11.50;6.53;;;2.60;97.00;;;;;;4911686;29;20223;-73
2023/03/11 08:51:34;;;;;;;4.23;3.83;;;2.60;97.80;;;;;;4916331;29;20279;-68
2023/03/11 08:54:03;;;;;;;5.60;4.67;;;2.60;97.00;;;;;;4916520;29;20217;-75
2023/03/11 08:56:32;;;;;;;7.20;5.20;;;2.70;98.50;;;;;;4916433;29;20203;-71
2023/03/11 08:59:00;;;;;;;7.10;5.10;;;2.70;97.20;;;;;;4916109;29;20323;-69
2023/03/11 09:01:29;;;;;;;6.63;4.70;;;2.70;96.40;;;;;;4915822;29;20293;-77
2023/03/11 09:03:58;;;;;;;9.13;5.10;;;2.70;95.50;;;;;;4899188;29;20203;-75
2023/03/11 09:06:29;;;;;;;8.73;5.50;;;2.80;95.10;;;;;;4893042;29;20215;-68
2023/03/11 09:09:00;;;;;;;5.40;4.30;;;2.90;94.70;;;;;;4878616;29;20198;-77
2023/03/11 09:11:29;;;;;;;5.23;4.20;;;2.90;93.40;;;;;;4861825;29;20324;-79
2023/03/11 09:13:59;;;;;;;9.37;5.13;;;2.90;93.30;;;;;;4878635;29;20679;-80
2023/03/11 09:16:28;;;;;;;8.73;5.50;;;3.00;93.20;;;;;;4860907;29;20242;-78
2023/03/11 09:18:59;;;;;;;21.00;10.53;;;3.10;93.30;;;;;;4894180;29;20605;-81
2023/03/11 09:21:30;;;;;;;5.40;3.87;;;3.10;92.50;;;;;;4897090;29;20201;-80
2023/03/11 09:24:03;;;;;;;5.87;4.27;;;2.90;92.10;;;;;;4880429;29;20542;-81
2023/03/11 09:26:32;;;;;;;4.43;3.13;;;3.00;92.50;;;;;;4880369;29;20220;-79
2023/03/11 09:29:01;;;;;;;4.30;3.63;;;2.80;95.50;;;;;;4896997;29;20927;-70
2023/03/11 09:31:29;;;;;;;4.83;3.90;;;2.80;98.00;;;;;;4879812;29;20206;-79
2023/03/11 09:33:58;;;;;;;6.37;4.17;;;2.70;99.40;;;;;;4897163;29;20197;-69
2023/03/11 09:36:27;;;;;;;8.97;4.97;;;2.60;99.90;;;;;;4897285;29;20666;-74
2023/03/11 09:38:55;;;;;;;4.73;3.87;;;2.60;99.90;;;;;;4896860;29;20229;-76
2023/03/11 09:41:35;;;;;;;5.77;3.53;;;2.60;99.90;;;;;;4900248;29;20211;-74
2023/03/11 09:44:23;;;;;;;6.47;3.93;;;2.60;99.90;;;;;;4901045;29;20206;-78
2023/03/11 09:47:23;;;;;;;4.07;3.03;;;2.60;99.10;;;;;;4882942;29;20268;-73
2023/03/11 09:50:33;;;;;;;5.23;3.87;;;2.60;94.70;;;;;;4824432;29;20225;-71
2023/03/11 09:53:19;;;;;;;4.80;3.10;;;2.60;91.70;;;;;;4817042;29;20719;-72
2023/03/11 09:55:50;;;;;;;6.00;3.43;;;2.60;90.50;;;;;;4806405;29;20209;-69
2023/03/11 09:58:26;;;;;;;4.27;3.40;;;2.70;88.80;;;;;;4806262;29;20636;-70
2023/03/11 10:00:55;;;;;;;5.47;4.00;;;2.80;86.00;;;;;;4805551;29;20280;-70
2023/03/11 10:03:31;;;;;;;5.83;3.73;;;2.90;88.90;;;;;;4806360;29;20207;-81
2023/03/11 10:06:14;;;;;;;4.07;3.47;;;2.90;85.90;;;;;;4791134;29;20221;-72
2023/03/11 10:08:47;;;;;;;5.47;3.73;;;2.80;83.30;;;;;;4791019;29;21080;-69
2023/03/11 10:11:46;;;;;;;4.27;3.80;;;2.90;82.70;;;;;;4805545;29;20242;-81
2023/03/11 10:14:38;;;;;;;3.37;2.93;;;2.90;81.40;;;;;;4769560;29;20216;-79
2023/03/11 10:17:20;;;;;;;6.50;4.33;;;2.90;79.50;;;;;;4769052;30;20771;-78
2023/03/11 10:19:56;;;;;;;7.17;4.00;;;3.00;81.20;;;;;;4769545;30;20719;-75
2023/03/11 10:22:31;;;;;;;6.17;4.10;;;3.00;79.70;;;;;;4769550;30;20219;-72
2023/03/11 10:25:09;;;;;;;7.77;4.33;;;3.20;80.50;;;;;;4769368;30;20213;-68
2023/03/11 10:27:42;;;;;;;7.77;4.23;;;3.10;79.70;;;;;;4815165;29;20206;-67
2023/03/11 10:30:21;;;;;;;3.83;3.37;;;3.10;80.70;;;;;;4823358;29;20216;-70
2023/03/11 10:32:54;;;;;;;3.97;3.30;;;2.90;82.30;;;;;;4823254;29;20274;-67
2023/03/11 10:35:34;;;;;;;5.60;3.70;;;2.90;83.60;;;;;;4823488;29;20215;-72
2023/03/11 10:38:11;;;;;;;3.33;3.03;;;2.90;85.90;;;;;;4823340;29;20785;-70
2023/03/11 10:40:42;;;;;;;4.20;3.37;;;2.90;86.80;;;;;;4822822;29;20216;-71
2023/03/11 10:43:14;;;;;;;5.37;3.10;;;2.90;88.00;;;;;;4823336;29;20237;-70
2023/03/11 10:45:47;;;;;;;12.17;5.53;;;2.90;85.00;;;;;;4822994;29;20209;-71
2023/03/11 10:48:18;;;;;;;6.53;4.40;;;2.80;87.30;;;;;;4822583;29;20215;-71
2023/03/11 10:50:58;;;;;;;8.43;4.27;;;2.90;87.10;;;;;;4842067;29;20239;-71
2023/03/11 10:53:27;;;;;;;5.30;3.03;;;2.90;82.30;;;;;;4880080;29;20202;-68
2023/03/11 10:55:58;;;;;;;12.30;6.40;;;2.80;79.10;;;;;;4880825;29;20682;-67
2023/03/11 10:58:29;;;;;;;3.30;3.00;;;2.70;78.90;;;;;;4880472;29;20228;-76
2023/03/11 11:01:06;;;;;;;5.97;3.83;;;2.80;78.90;;;;;;4880267;29;20198;-72
2023/03/11 11:03:35;;;;;;;4.97;3.37;;;2.80;79.00;;;;;;4863771;29;20200;-67
2023/03/11 11:06:06;;;;;;;7.17;3.37;;;2.80;76.00;;;;;;4880368;29;20570;-71
2023/03/11 11:08:35;;;;;;;3.10;2.80;;;2.70;76.10;;;;;;4880226;29;20201;-74
2023/03/11 11:11:05;;;;;;;3.17;2.37;;;2.60;76.30;;;;;;4879897;29;20706;-70
2023/03/11 11:13:34;;;;;;;3.43;2.57;;;2.70;76.40;;;;;;4880756;29;20746;-67
2023/03/11 11:16:17;;;;;;;2.60;2.40;;;2.70;73.10;;;;;;4887861;29;20610;-76
2023/03/11 11:18:49;;;;;;;3.03;2.20;;;2.70;71.40;;;;;;4898213;29;20251;-74
2023/03/11 11:21:29;;;;;;;3.10;2.80;;;2.80;70.60;;;;;;4892652;29;20243;-74
2023/03/11 11:24:06;;;;;;;2.60;2.37;;;2.90;69.60;;;;;;4883732;29;20268;-74
2023/03/11 11:26:35;;;;;;;2.50;2.30;;;3.00;69.20;;;;;;4879965;29;20214;-78
2023/03/11 11:29:13;;;;;;;3.70;2.20;;;3.10;68.10;;;;;;4880677;29;20199;-76
2023/03/11 11:31:45;;;;;;;6.27;3.27;;;3.20;68.10;;;;;;4886408;29;20887;-78
2023/03/11 11:34:29;;;;;;;5.20;2.43;;;3.40;67.80;;;;;;4879776;29;20205;-74
2023/03/11 11:36:59;;;;;;;4.63;3.10;;;3.20;66.00;;;;;;4895513;29;20212;-75
2023/03/11 11:39:33;;;;;;;4.63;3.37;;;3.20;68.20;;;;;;4894196;29;20241;-75
2023/03/11 11:42:03;;;;;;;5.13;2.90;;;3.10;70.70;;;;;;4863040;29;20212;-75
2023/03/11 11:44:34;;;;;;;3.83;2.90;;;3.10;71.80;;;;;;4879732;29;20266;-79
2023/03/11 11:47:14;;;;;;;6.27;4.13;;;3.00;71.30;;;;;;4862873;29;20654;-77
2023/03/11 11:49:52;;;;;;;6.57;4.40;;;3.00;71.10;;;;;;4879659;29;20206;-75
2023/03/11 11:52:24;;;;;;;6.03;3.57;;;3.10;71.10;;;;;;4879825;29;20198;-71
2023/03/11 11:54:57;;;;;;;3.43;2.90;;;3.00;72.40;;;;;;4879607;29;20676;-79
2023/03/11 11:57:25;;;;;;;6.40;3.83;;;2.90;73.60;;;;;;4879816;29;20284;-75
2023/03/11 11:59:55;;;;;;;5.20;3.30;;;3.00;75.80;;;;;;4879461;29;20224;-77
2023/03/11 12:02:43;;;;;;;7.77;4.27;;;2.90;77.80;;;;;;4879483;29;20576;-78
2023/03/11 12:05:18;;;;;;;7.57;4.33;;;3.10;79.40;;;;;;4879365;29;20213;-70
2023/03/11 12:08:00;;;;;;;5.10;4.07;;;3.20;79.20;;;;;;4879297;29;20580;-72
2023/03/11 12:10:32;;;;;;;4.00;3.37;;;3.30;79.90;;;;;;4879173;29;20216;-69
2023/03/11 12:13:30;;;;;;;7.30;3.90;;;3.40;79.80;;;;;;4879103;29;20198;-71
2023/03/11 12:16:04;;;;;;;6.30;3.63;;;3.40;81.40;;;;;;4803414;29;20624;-69
2023/03/11 12:18:39;;;;;;;5.57;3.57;;;3.50;81.80;;;;;;4803399;29;20215;-68
2023/03/11 12:21:26;;;;;;;4.57;3.30;;;3.50;82.10;;;;;;4803461;29;20235;-68
2023/03/11 12:24:10;;;;;;;7.83;4.23;;;3.40;82.30;;;;;;4803819;29;20219;-74
2023/03/11 12:26:42;;;;;;;4.13;3.40;;;3.50;80.90;;;;;;4803602;29;20632;-69
2023/03/11 12:29:19;;;;;;;6.13;4.30;;;3.40;75.90;;;;;;4803489;29;20205;-70
2023/03/11 12:31:48;;;;;;;5.93;3.47;;;3.40;75.40;;;;;;4808164;29;20712;-69
2023/03/11 12:34:21;;;;;;;4.13;3.23;;;3.30;73.50;;;;;;4821410;29;20650;-70
2023/03/11 12:36:52;;;;;;;4.77;3.97;;;3.30;74.40;;;;;;4817436;29;20703;-68
2023/03/11 12:39:24;;;;;;;6.40;3.57;;;3.50;75.20;;;;;;4821644;29;20234;-70
2023/03/11 12:42:20;;;;;;;6.87;3.13;;;3.60;75.40;;;;;;4822080;29;20289;-68
2023/03/11 12:44:52;;;;;;;3.20;2.90;;;3.50;73.10;;;;;;4822149;29;20207;-68
2023/03/11 12:47:28;;;;;;;9.40;4.30;;;3.30;72.70;;;;;;4816423;29;20212;-68
2023/03/11 12:50:39;;;;;;;3.30;2.57;;;3.20;75.10;;;;;;4821267;29;20211;-69
2023/03/11 12:53:17;;;;;;;8.33;3.77;;;3.40;73.70;;;;;;4850506;29;20291;-68
2023/03/11 12:56:04;;;;;;;4.60;3.03;;;3.70;71.70;;;;;;4878960;29;20677;-69
2023/03/11 12:58:56;;;;;;;5.60;3.10;;;3.80;70.50;;;;;;4879090;29;20201;-68
2023/03/11 13:01:47;;;;;;;3.30;3.00;;;3.70;70.40;;;;;;4889293;29;20247;-67
2023/03/11 13:04:38;;;;;;;4.23;2.73;;;3.60;70.60;;;;;;4878900;29;20209;-72
2023/03/11 13:07:39;;;;;;;4.70;2.63;;;3.40;69.60;;;;;;4862124;29;20222;-67
2023/03/11 13:10:17;;;;;;;7.47;3.00;;;3.10;71.10;;;;;;4878782;29;20546;-68
2023/03/11 13:12:48;;;;;;;8.97;5.53;;;3.30;72.40;;;;;;4879163;29;20214;-72
2023/03/11 13:15:36;;;;;;;5.27;3.40;;;3.40;72.60;;;;;;4878251;29;20205;-73
2023/03/11 13:18:17;;;;;;;5.40;3.53;;;3.60;73.00;;;;;;4878628;29;20640;-69
2023/03/11 13:20:50;;;;;;;3.87;2.87;;;3.60;72.90;;;;;;4878611;29;20226;-68
2023/03/11 13:23:33;;;;;;;4.23;3.33;;;3.40;71.50;;;;;;4880941;29;20217;-75